createdAt,value
2019-03-03T00:03:34.347Z,11.68
2019-03-03T00:08:36.818Z,11.63
2019-03-03T00:13:39.285Z,11.61
2019-03-03T00:18:41.787Z,11.51
2019-03-03T00:23:44.234Z,11.56
2019-03-03T00:28:46.685Z,11.62
2019-03-03T00:33:49.152Z,11.61
2019-03-03T00:38:54.553Z,11.64
2019-03-03T00:44:06.274Z,11.60
2019-03-03T00:49:17.793Z,11.61
2019-03-03T00:54:20.285Z,11.54
2019-03-03T00:59:25.608Z,11.52
2019-03-03T01:04:46.324Z,11.58
2019-03-03T01:09:48.791Z,11.57
2019-03-03T01:14:57.208Z,11.52
2019-03-03T01:19:59.679Z,11.53
2019-03-03T01:25:02.394Z,11.52
2019-03-03T01:30:10.743Z,11.49
2019-03-03T01:35:13.215Z,11.49
2019-03-03T01:40:15.690Z,11.49
2019-03-03T01:45:18.159Z,11.49
2019-03-03T01:50:20.631Z,11.47
2019-03-03T01:55:23.093Z,11.52
2019-03-03T02:00:25.561Z,11.53
2019-03-03T02:05:28.022Z,11.50
2019-03-03T02:10:30.531Z,11.47
2019-03-03T02:15:32.982Z,11.44
2019-03-03T02:20:35.430Z,11.43
2019-03-03T02:25:37.906Z,11.47
2019-03-03T02:30:40.379Z,11.45
2019-03-03T02:35:42.900Z,11.42
2019-03-03T02:40:47.222Z,11.40
2019-03-03T02:45:47.875Z,11.40
2019-03-03T02:50:50.333Z,11.37
2019-03-03T02:55:52.808Z,11.41
2019-03-03T03:00:55.268Z,11.34
2019-03-03T03:06:00.610Z,11.28
2019-03-03T03:11:03.053Z,11.25
2019-03-03T03:16:14.545Z,11.18
2019-03-03T03:21:19.992Z,11.18
2019-03-03T03:26:22.458Z,11.09
2019-03-03T03:31:34.112Z,11.07
2019-03-03T03:36:37.034Z,11.18
2019-03-03T03:41:39.046Z,11.35
2019-03-03T03:46:50.675Z,11.38
2019-03-03T03:52:02.188Z,11.34
2019-03-03T03:57:04.631Z,11.34
2019-03-03T04:02:10.262Z,11.41
2019-03-03T04:07:12.719Z,11.38
2019-03-03T04:12:33.424Z,11.45
2019-03-03T04:17:41.799Z,11.42
2019-03-03T04:22:59.365Z,11.41
2019-03-03T04:28:17.115Z,11.43
2019-03-03T04:33:22.341Z,11.44
2019-03-03T04:38:24.804Z,11.43
2019-03-03T04:43:27.279Z,11.44
2019-03-03T04:48:29.741Z,11.48
2019-03-03T04:53:50.395Z,11.51
2019-03-03T04:58:56.027Z,11.43
2019-03-03T05:04:10.646Z,11.43
2019-03-03T05:09:31.486Z,11.44
2019-03-03T05:14:33.959Z,11.41
2019-03-03T05:19:36.433Z,11.44
2019-03-03T05:24:38.906Z,11.48
2019-03-03T05:29:41.401Z,11.45
2019-03-03T05:34:43.915Z,11.47
2019-03-03T05:39:46.341Z,11.49
2019-03-03T05:44:48.804Z,11.52
2019-03-03T05:49:51.257Z,11.48
2019-03-03T05:54:53.727Z,11.49
2019-03-03T05:59:56.216Z,11.48
2019-03-03T06:04:58.663Z,11.48
2019-03-03T06:10:01.132Z,11.47
2019-03-03T06:15:07.336Z,11.47
2019-03-03T06:20:09.782Z,11.49
2019-03-03T06:25:12.240Z,11.49
2019-03-03T06:30:14.711Z,11.55
2019-03-03T06:35:17.205Z,11.64
2019-03-03T06:40:19.675Z,11.69
2019-03-03T06:45:22.140Z,11.75
2019-03-03T06:50:24.603Z,11.82
2019-03-03T06:55:27.068Z,11.86
2019-03-03T07:00:29.531Z,11.90
2019-03-03T07:05:32.006Z,11.91
2019-03-03T07:10:34.467Z,11.90
2019-03-03T07:15:36.930Z,11.95
2019-03-03T07:20:39.409Z,12.00
2019-03-03T07:25:41.918Z,12.01
2019-03-03T07:30:44.387Z,12.04
2019-03-03T07:35:46.872Z,12.21
2019-03-03T07:40:49.333Z,12.57
2019-03-03T07:45:51.787Z,12.81
2019-03-03T07:50:54.247Z,13.00
2019-03-03T07:55:56.717Z,13.36
2019-03-03T08:00:59.179Z,13.52
2019-03-03T08:06:01.659Z,13.31
2019-03-03T08:11:04.162Z,13.43
2019-03-03T08:16:06.623Z,13.41
2019-03-03T08:21:09.143Z,13.40
2019-03-03T08:26:11.614Z,13.37
2019-03-03T08:31:14.086Z,13.20
2019-03-03T08:36:16.569Z,13.10
2019-03-03T08:41:19.047Z,12.99
2019-03-03T08:46:33.627Z,12.81
2019-03-03T08:51:45.285Z,12.92
2019-03-03T08:56:56.798Z,13.24
2019-03-03T09:02:17.387Z,13.25
2019-03-03T09:07:28.864Z,13.09
2019-03-03T09:12:34.264Z,13.39
2019-03-03T09:17:36.785Z,13.90
2019-03-03T09:22:48.496Z,13.99
2019-03-03T09:27:50.956Z,14.30
2019-03-03T09:32:56.318Z,14.45
2019-03-03T09:38:04.666Z,14.75
2019-03-03T09:43:12.870Z,14.95
2019-03-03T09:48:18.277Z,14.70
2019-03-03T09:53:23.611Z,14.75
2019-03-03T09:58:31.939Z,14.58
2019-03-03T10:03:34.403Z,14.29
2019-03-03T10:08:36.870Z,14.20
2019-03-03T10:13:39.359Z,14.29
2019-03-03T10:18:41.821Z,14.26
2019-03-03T10:23:46.777Z,14.24
2019-03-03T10:28:52.204Z,14.29
2019-03-03T10:34:09.910Z,14.17
2019-03-03T10:39:18.412Z,14.36
2019-03-03T10:44:33.320Z,14.17
2019-03-03T10:49:35.842Z,14.27
2019-03-03T10:54:47.410Z,14.45
2019-03-03T11:00:08.225Z,14.05
2019-03-03T11:05:10.785Z,13.88
2019-03-03T11:10:16.276Z,14.07
2019-03-03T11:15:18.959Z,13.67
2019-03-03T11:20:24.051Z,13.66
2019-03-03T11:25:41.680Z,13.70
2019-03-03T11:30:56.172Z,13.80
2019-03-03T11:35:58.670Z,14.04
2019-03-03T11:41:03.801Z,14.24
2019-03-03T11:46:24.504Z,14.06
2019-03-03T11:51:26.948Z,13.87
2019-03-03T11:56:32.351Z,13.89
2019-03-03T12:01:40.356Z,13.90
2019-03-03T12:07:01.317Z,13.80
2019-03-03T12:12:06.551Z,13.87
2019-03-03T12:17:27.551Z,14.30
2019-03-03T12:22:48.265Z,15.48
2019-03-03T12:27:50.750Z,15.86
2019-03-03T12:32:53.225Z,15.11
2019-03-03T12:38:07.962Z,14.79
2019-03-03T12:43:28.803Z,14.58
2019-03-03T12:48:31.281Z,14.62
2019-03-03T12:53:36.428Z,14.82
2019-03-03T12:58:57.029Z,14.51
2019-03-03T13:04:08.497Z,14.42
2019-03-03T13:09:10.961Z,14.18
2019-03-03T13:14:22.227Z,14.17
2019-03-03T13:19:24.615Z,14.07
2019-03-03T13:24:27.075Z,14.02
2019-03-03T13:29:29.577Z,14.10
2019-03-03T13:34:38.069Z,14.23
2019-03-03T13:39:40.561Z,14.44
2019-03-03T13:44:43.032Z,14.56
2019-03-03T13:49:45.485Z,14.56
2019-03-03T13:54:47.946Z,14.51
2019-03-03T13:59:50.422Z,14.43
2019-03-03T14:04:52.930Z,14.37
2019-03-03T14:09:55.413Z,14.38
2019-03-03T14:14:57.892Z,14.47
2019-03-03T14:20:00.372Z,14.51
2019-03-03T14:25:02.836Z,14.48
2019-03-03T14:30:17.271Z,15.12
2019-03-03T14:35:19.750Z,15.09
2019-03-03T14:40:22.235Z,14.97
2019-03-03T14:45:24.722Z,14.80
2019-03-03T14:50:27.237Z,14.74
2019-03-03T14:55:29.707Z,14.43
2019-03-03T15:00:32.211Z,14.25
2019-03-03T15:05:34.689Z,14.31
2019-03-03T15:10:37.186Z,14.31
2019-03-03T15:15:39.673Z,14.23
2019-03-03T15:20:42.195Z,14.41
2019-03-03T15:25:44.656Z,14.36
2019-03-03T15:30:47.129Z,14.20
2019-03-03T15:35:49.708Z,14.13
2019-03-03T15:40:52.194Z,14.06
2019-03-03T15:45:54.709Z,14.21
2019-03-03T15:50:57.186Z,14.14
2019-03-03T15:55:59.702Z,14.12
2019-03-03T16:01:02.225Z,14.06
2019-03-03T16:06:04.698Z,14.03
2019-03-03T16:11:07.170Z,14.05
2019-03-03T16:16:09.676Z,14.04
2019-03-03T16:21:12.160Z,14.03
2019-03-03T16:26:14.635Z,13.94
2019-03-03T16:31:17.117Z,13.99
2019-03-03T16:36:19.616Z,13.89
2019-03-03T16:41:22.128Z,13.80
2019-03-03T16:46:24.670Z,13.74
2019-03-03T16:51:27.099Z,13.73
2019-03-03T16:56:29.612Z,13.66
2019-03-03T17:01:32.088Z,13.66
2019-03-03T17:06:34.592Z,13.65
2019-03-03T17:11:37.108Z,13.57
2019-03-03T17:16:39.594Z,13.56
2019-03-03T17:21:42.076Z,13.54
2019-03-03T17:26:44.554Z,13.52
2019-03-03T17:31:47.034Z,13.52
2019-03-03T17:36:49.545Z,13.58
2019-03-03T17:41:52.004Z,13.56
2019-03-03T17:46:54.479Z,13.62
2019-03-03T17:51:57.013Z,13.57
2019-03-03T17:56:59.492Z,13.50
2019-03-03T18:02:01.968Z,13.46
2019-03-03T18:07:04.482Z,13.41
2019-03-03T18:12:06.966Z,13.40
2019-03-03T18:17:09.494Z,13.43
2019-03-03T18:22:12.014Z,13.39
2019-03-03T18:27:14.504Z,13.40
2019-03-03T18:32:16.981Z,13.37
2019-03-03T18:37:19.479Z,13.34
2019-03-03T18:42:21.935Z,13.39
2019-03-03T18:47:24.404Z,13.40
2019-03-03T18:52:26.920Z,13.40
2019-03-03T18:57:29.408Z,13.45
2019-03-03T19:02:31.876Z,13.44
2019-03-03T19:07:34.350Z,13.43
2019-03-03T19:12:36.878Z,13.33
2019-03-03T19:17:39.354Z,13.38
2019-03-03T19:22:41.831Z,13.38
2019-03-03T19:27:44.340Z,13.31
2019-03-03T19:32:46.830Z,13.26
2019-03-03T19:37:49.316Z,13.27
2019-03-03T19:42:51.838Z,13.19
2019-03-03T19:47:54.238Z,13.19
2019-03-03T19:52:56.731Z,13.13
2019-03-03T19:57:59.196Z,13.12
2019-03-03T20:03:01.761Z,13.13
2019-03-03T20:08:04.206Z,13.22
2019-03-03T20:13:06.765Z,13.24
2019-03-03T20:18:09.237Z,13.23
2019-03-03T20:23:11.729Z,13.26
2019-03-03T20:28:14.223Z,13.25
2019-03-03T20:33:16.732Z,13.28
2019-03-03T20:38:19.230Z,13.25
2019-03-03T20:43:21.700Z,13.28
2019-03-03T20:48:24.172Z,13.32
2019-03-03T20:53:26.661Z,13.40
2019-03-03T20:58:29.148Z,13.42
2019-03-03T21:03:31.631Z,13.42
2019-03-03T21:08:34.127Z,13.41
2019-03-03T21:13:36.617Z,13.43
2019-03-03T21:18:39.098Z,13.46
2019-03-03T21:23:41.587Z,13.35
2019-03-03T21:28:44.059Z,13.34
2019-03-03T21:33:46.533Z,13.38
2019-03-03T21:38:48.988Z,13.42
2019-03-03T21:43:51.461Z,13.40
2019-03-03T21:48:53.949Z,13.44
2019-03-03T21:53:56.444Z,13.35
2019-03-03T21:58:58.918Z,13.33
2019-03-03T22:04:01.390Z,13.32
2019-03-03T22:09:03.897Z,13.27
2019-03-03T22:14:06.373Z,13.13
2019-03-03T22:19:08.855Z,12.93
2019-03-03T22:24:11.339Z,12.73
2019-03-03T22:29:13.822Z,12.49
2019-03-03T22:34:16.307Z,12.19
2019-03-03T22:39:18.786Z,12.00
2019-03-03T22:44:21.262Z,11.90
2019-03-03T22:49:23.767Z,11.79
2019-03-03T22:54:26.228Z,11.53
2019-03-03T22:59:28.689Z,11.49
2019-03-03T23:04:33.986Z,11.31
2019-03-03T23:09:45.289Z,11.05
2019-03-03T23:15:15.521Z,10.97
2019-03-03T23:20:21.022Z,10.71
2019-03-03T23:25:26.123Z,10.61
2019-03-03T23:30:28.583Z,10.48
2019-03-03T23:35:31.060Z,10.42
2019-03-03T23:40:33.520Z,10.44
2019-03-03T23:45:36.056Z,10.80
2019-03-03T23:50:38.472Z,10.87
2019-03-03T23:55:40.939Z,10.99
